Terminal Aerodrome Forecast
Issued by NWS Paducah, KY

Home | Current Version | Previous Version | Text Only | Print | Product List | Glossary On
Versions: 1 2 3 4 5 6 7 8 9 10 11 12 13 14 15 16 17 18
000
FTUS43 KPAH 020520
TAFEVV
TAF
KEVV 020520Z 0206/0306 VRB04KT 6SM -SHRA BR SCT050 BKN090
      TEMPO 0206/0207 3SM TSRA BKN025CB
     FM021000 VRB03KT 4SM SHRA BR SCT015 BKN035
     FM021400 VRB05KT 6SM BR VCSH SCT015 BKN035
     FM021600 21005KT P6SM BKN025
     FM022300 30006KT P6SM BKN030=

USA.gov is the U.S. government's official web portal to all federal, state and local government web resources and services.